Time;durP1;ratioP1;P1;durP2;ratioP2;P2;SDS_P1;SDS_P2;PMS_P1;PMS_P2;Temp;Humidity;BMP_temperature;BMP_pressure;BME280_temperature;BME280_humidity;BME280_pressure;Samples;Min_cycle;Max_cycle;Signal;HPM_P1;HPM_P2
2023/05/08 05:51:53;;;;;;;11.85;10.63;;;;;;;;;;10515094;27;20411;-86
2023/05/08 05:57:22;;;;;;;14.20;12.57;;;;;;;;;;10497337;28;20032;-87
2023/05/08 06:02:23;;;;;;;11.77;10.57;;;;;;;;;;10498727;22;20072;-78
2023/05/08 06:07:24;;;;;;;;;;;;;;;;;;10454278;28;20101;-78
2023/05/08 06:12:27;;;;;;;14.60;13.10;;;;;;;;;;10453833;28;19909;-78
2023/05/08 06:17:28;;;;;;;10.55;9.35;;;;;;;;;;10454472;28;20379;-78
2023/05/08 06:22:30;;;;;;;9.82;8.82;;;;;;;;;;10453687;28;20028;-78
2023/05/08 06:27:31;;;;;;;7.32;6.65;;;;;;;;;;10458710;28;20028;-78
2023/05/08 06:32:32;;;;;;;11.43;10.23;;;;;;;;;;10448780;28;20498;-77
2023/05/08 06:37:33;;;;;;;11.18;9.88;;;;;;;;;;10464866;28;20025;-78
2023/05/08 06:42:34;;;;;;;13.70;12.38;;;;;;;;;;10453552;28;20036;-78
2023/05/08 06:47:35;;;;;;;9.63;8.73;;;;;;;;;;10434469;28;20025;-78
2023/05/08 06:52:36;;;;;;;10.35;9.35;;;;;;;;;;10434230;28;20368;-78
2023/05/08 06:57:37;;;;;;;8.32;7.50;;;;;;;;;;10453282;28;20025;-78
2023/05/08 07:02:38;;;;;;;6.90;6.30;;;;;;;;;;10409727;28;20030;-80
2023/05/08 07:07:41;;;;;;;7.28;6.45;;;;;;;;;;10429995;28;20022;-83
2023/05/08 07:12:43;;;;;;;8.27;7.47;;;;;;;;;;10413872;28;20112;-82
2023/05/08 07:17:44;;;;;;;7.32;6.63;;;;;;;;;;10418067;28;20036;-85
2023/05/08 07:22:45;;;;;;;6.95;6.15;;;;;;;;;;10417087;28;20526;-85
2023/05/08 07:27:46;;;;;;;8.25;6.55;;;;;;;;;;10416529;28;20040;-84
2023/05/08 07:32:47;;;;;;;8.52;7.72;;;;;;;;;;10418006;28;20029;-84
2023/05/08 07:37:48;;;;;;;10.10;9.10;;;;;;;;;;10419333;28;20096;-83
2023/05/08 07:42:49;;;;;;;11.23;10.13;;;;;;;;;;10428168;28;20033;-83
2023/05/08 07:47:57;;;;;;;14.27;12.88;;;;;;;;;;10424478;28;20030;-84
2023/05/08 07:52:59;;;;;;;17.92;16.13;;;;;;;;;;10420844;28;20022;-83
2023/05/08 07:58:00;;;;;;;18.27;16.17;;;;;;;;;;10415304;28;20029;-84
2023/05/08 08:03:01;;;;;;;16.42;14.80;;;;;;;;;;10418941;28;20034;-84
2023/05/08 08:08:03;;;;;;;19.63;17.52;;;;;;;;;;10423029;28;20072;-82
2023/05/08 08:13:04;;;;;;;18.83;16.77;;;;;;;;;;10418096;28;20022;-84
2023/05/08 08:18:05;;;;;;;16.00;14.13;;;;;;;;;;10418272;28;20045;-83
2023/05/08 08:23:06;;;;;;;13.82;12.18;;;;;;;;;;10419075;28;20022;-84
2023/05/08 08:28:07;;;;;;;19.08;17.08;;;;;;;;;;10415785;28;20072;-84
2023/05/08 08:33:08;;;;;;;16.75;14.55;;;;;;;;;;10414969;28;20076;-83
2023/05/08 08:38:09;;;;;;;11.95;10.75;;;;;;;;;;10424619;28;20045;-83
2023/05/08 08:43:18;;;;;;;14.30;11.82;;;;;;;;;;10440478;28;20033;-83
2023/05/08 08:48:21;;;;;;;11.82;10.13;;;;;;;;;;10434186;28;20021;-83
2023/05/08 08:53:37;;;;;;;14.02;12.48;;;;;;;;;;10425958;28;20056;-84
2023/05/08 08:59:00;;;;;;;8.77;7.60;;;;;;;;;;10423089;28;20498;-82
2023/05/08 09:04:05;;;;;;;8.95;6.82;;;;;;;;;;10420752;28;20064;-83
2023/05/08 09:09:09;;;;;;;6.25;5.65;;;;;;;;;;10422009;28;20029;-83
2023/05/08 09:14:10;;;;;;;7.57;6.10;;;;;;;;;;10422051;28;20428;-83
2023/05/08 09:19:14;;;;;;;5.10;4.55;;;;;;;;;;10421789;28;20100;-84
2023/05/08 09:24:16;;;;;;;9.13;7.00;;;;;;;;;;10426134;28;20029;-83
2023/05/08 09:29:30;;;;;;;10.32;7.60;;;;;;;;;;10436666;28;20065;-84
2023/05/08 09:34:32;;;;;;;11.55;5.88;;;;;;;;;;10417842;28;20086;-84
2023/05/08 09:39:33;;;;;;;9.30;6.80;;;;;;;;;;10414816;28;20079;-85
2023/05/08 09:44:48;;;;;;;7.43;6.22;;;;;;;;;;10419328;28;20108;-85
2023/05/08 09:50:02;;;;;;;6.75;5.47;;;;;;;;;;10434615;28;20461;-81
2023/05/08 09:55:05;;;;;;;6.60;4.38;;;;;;;;;;10426354;28;20432;-79
2023/05/08 10:00:11;;;;;;;9.50;6.28;;;;;;;;;;10419494;28;20025;-80
2023/05/08 10:05:22;;;;;;;6.30;5.50;;;;;;;;;;10412920;28;20033;-80
2023/05/08 10:10:27;;;;;;;7.55;5.07;;;;;;;;;;10416499;28;20101;-80
2023/05/08 10:15:32;;;;;;;4.65;3.70;;;;;;;;;;10431243;28;20089;-80
2023/05/08 10:20:33;;;;;;;7.03;5.53;;;;;;;;;;10413742;28;20033;-80
2023/05/08 10:25:35;;;;;;;5.25;4.55;;;;;;;;;;10412531;28;20037;-81
2023/05/08 10:30:38;;;;;;;6.68;5.43;;;;;;;;;;10428415;28;20057;-81
2023/05/08 10:35:39;;;;;;;7.22;5.85;;;;;;;;;;10413589;28;20021;-81
2023/05/08 10:40:41;;;;;;;6.40;4.80;;;;;;;;;;10414986;28;20029;-80
2023/05/08 10:45:42;;;;;;;5.63;4.80;;;;;;;;;;10415954;28;20543;-80
2023/05/08 10:50:43;;;;;;;6.40;5.10;;;;;;;;;;10418354;28;20463;-80
2023/05/08 10:55:45;;;;;;;6.00;5.22;;;;;;;;;;10422854;28;20085;-79
2023/05/08 11:00:52;;;;;;;5.53;4.60;;;;;;;;;;10417400;28;20391;-81
2023/05/08 11:05:55;;;;;;;7.40;4.82;;;;;;;;;;10434960;28;20108;-80
2023/05/08 11:11:03;;;;;;;5.05;4.50;;;;;;;;;;10416684;28;20021;-81
2023/05/08 11:16:11;;;;;;;4.75;3.97;;;;;;;;;;10416856;28;20459;-81
2023/05/08 11:21:20;;;;;;;6.80;4.07;;;;;;;;;;10413075;28;20021;-81
2023/05/08 11:26:22;;;;;;;4.80;4.30;;;;;;;;;;10413173;28;20021;-81
2023/05/08 11:31:23;;;;;;;5.45;3.70;;;;;;;;;;10431253;28;20052;-81
2023/05/08 11:36:24;;;;;;;5.20;4.05;;;;;;;;;;10412505;28;20109;-81
2023/05/08 11:41:26;;;;;;;5.15;4.00;;;;;;;;;;10431438;28;20045;-81
2023/05/08 11:46:43;;;;;;;4.20;3.05;;;;;;;;;;10412809;28;20030;-84
2023/05/08 11:51:45;;;;;;;3.88;3.40;;;;;;;;;;10414707;28;20099;-81
2023/05/08 11:56:46;;;;;;;4.55;3.20;;;;;;;;;;10419398;28;20029;-79
2023/05/08 12:01:48;;;;;;;3.90;3.47;;;;;;;;;;10461012;23;20041;-80
2023/05/08 12:06:50;;;;;;;5.32;4.40;;;;;;;;;;10490214;28;20051;-80
2023/05/08 12:11:56;;;;;;;3.90;3.42;;;;;;;;;;10500199;28;20040;-80
2023/05/08 12:16:57;;;;;;;7.00;5.97;;;;;;;;;;10518507;28;20086;-81
2023/05/08 12:21:58;;;;;;;4.90;4.28;;;;;;;;;;10518802;28;20046;-81
2023/05/08 12:27:00;;;;;;;4.88;4.10;;;;;;;;;;10519281;28;20035;-81
2023/05/08 12:32:01;;;;;;;4.65;3.50;;;;;;;;;;10544232;28;20040;-81
2023/05/08 12:37:02;;;;;;;4.72;2.80;;;;;;;;;;10515528;28;20024;-81
2023/05/08 12:42:03;;;;;;;4.25;3.10;;;;;;;;;;10515502;28;20029;-80
2023/05/08 12:47:05;;;;;;;4.15;2.97;;;;;;;;;;10515506;28;20103;-80
2023/05/08 12:52:13;;;;;;;4.10;2.42;;;;;;;;;;10507837;28;20084;-80
2023/05/08 12:57:15;;;;;;;4.28;2.70;;;;;;;;;;10538829;28;20016;-79
2023/05/08 13:02:17;;;;;;;2.30;2.10;;;;;;;;;;10530853;28;20060;-80
2023/05/08 13:07:19;;;;;;;4.28;2.50;;;;;;;;;;10513166;28;20059;-79
2023/05/08 13:12:20;;;;;;;3.17;2.88;;;;;;;;;;10509424;28;20016;-79
2023/05/08 13:17:21;;;;;;;3.08;2.55;;;;;;;;;;10501516;28;20095;-79
2023/05/08 13:22:25;;;;;;;4.55;4.15;;;;;;;;;;10518463;28;20429;-78
2023/05/08 13:27:26;;;;;;;10.77;9.68;;;;;;;;;;10498577;28;20024;-80
2023/05/08 13:32:27;;;;;;;6.25;2.85;;;;;;;;;;10501925;28;20035;-78
2023/05/08 13:37:28;;;;;;;2.60;2.20;;;;;;;;;;10507191;28;20025;-81
2023/05/08 13:42:29;;;;;;;3.38;2.63;;;;;;;;;;10504807;28;20055;-82
2023/05/08 13:47:30;;;;;;;3.00;2.58;;;;;;;;;;10506093;28;20061;-79
2023/05/08 13:52:31;;;;;;;4.28;2.50;;;;;;;;;;10495575;28;20074;-79
2023/05/08 13:57:33;;;;;;;4.93;2.75;;;;;;;;;;10490188;28;20121;-80
2023/05/08 14:02:35;;;;;;;4.45;2.83;;;;;;;;;;10501724;28;20036;-80
2023/05/08 14:07:37;;;;;;;3.90;3.00;;;;;;;;;;10503370;28;20366;-79
2023/05/08 14:12:38;;;;;;;6.00;5.35;;;;;;;;;;10509406;28;20055;-80
2023/05/08 14:17:41;;;;;;;3.65;3.35;;;;;;;;;;10512177;28;20048;-80
2023/05/08 14:22:42;;;;;;;5.07;4.20;;;;;;;;;;10512341;28;20024;-80
2023/05/08 14:27:43;;;;;;;4.80;3.60;;;;;;;;;;10509069;28;20444;-81
2023/05/08 14:32:44;;;;;;;4.35;3.50;;;;;;;;;;10508146;28;20040;-80
2023/05/08 14:37:45;;;;;;;4.63;4.10;;;;;;;;;;10506852;28;20024;-79
2023/05/08 14:42:46;;;;;;;4.55;4.10;;;;;;;;;;10540036;28;20068;-79
2023/05/08 14:47:47;;;;;;;5.65;5.15;;;;;;;;;;10544013;28;20036;-79
2023/05/08 14:52:49;;;;;;;4.35;3.95;;;;;;;;;;10515085;28;20024;-81
2023/05/08 14:57:50;;;;;;;4.40;3.97;;;;;;;;;;10530541;28;20031;-80
2023/05/08 15:02:51;;;;;;;5.85;4.22;;;;;;;;;;10527890;28;20036;-80
2023/05/08 15:07:52;;;;;;;4.93;4.00;;;;;;;;;;10502551;28;20478;-80
2023/05/08 15:12:53;;;;;;;6.97;4.88;;;;;;;;;;10496781;28;20031;-80
2023/05/08 15:17:54;;;;;;;5.28;4.78;;;;;;;;;;10536286;28;20027;-79
2023/05/08 15:22:55;;;;;;;6.25;4.40;;;;;;;;;;10512753;28;20036;-80
2023/05/08 15:27:58;;;;;;;4.95;4.45;;;;;;;;;;10510528;28;20024;-79
2023/05/08 15:32:59;;;;;;;6.57;4.00;;;;;;;;;;10524616;28;20023;-79
2023/05/08 15:38:04;;;;;;;4.32;3.90;;;;;;;;;;10509012;28;20028;-80
2023/05/08 15:43:05;;;;;;;4.78;4.38;;;;;;;;;;10507556;28;20035;-80
2023/05/08 15:48:06;;;;;;;5.38;3.70;;;;;;;;;;10502563;28;20029;-83
2023/05/08 15:53:07;;;;;;;4.15;3.30;;;;;;;;;;10500124;28;20024;-79
2023/05/08 15:58:09;;;;;;;5.13;4.63;;;;;;;;;;10499397;28;20028;-80
2023/05/08 16:03:10;;;;;;;7.65;6.93;;;;;;;;;;10518746;28;20025;-78
2023/05/08 16:08:11;;;;;;;4.03;3.63;;;;;;;;;;10494384;28;20464;-77
2023/05/08 16:13:12;;;;;;;5.82;3.75;;;;;;;;;;10492021;28;20059;-78
2023/05/08 16:18:13;;;;;;;5.30;4.80;;;;;;;;;;10514207;28;20100;-80
2023/05/08 16:23:14;;;;;;;4.65;4.25;;;;;;;;;;10498820;28;20119;-80
2023/05/08 16:28:18;;;;;;;5.03;4.53;;;;;;;;;;10513360;28;20021;-82
2023/05/08 16:39:41;;;;;;;8.02;7.22;;;;;;;;;;10510888;28;20029;-85
2023/05/08 16:50:45;;;;;;;4.40;4.00;;;;;;;;;;10423864;28;20037;-86
2023/05/08 17:02:05;;;;;;;7.00;4.00;;;;;;;;;;10382035;28;20026;-85
2023/05/08 17:18:58;;;;;;;5.32;4.10;;;;;;;;;;10299365;28;20038;-85
2023/05/08 17:24:19;;;;;;;4.72;3.97;;;;;;;;;;10296202;28;20035;-85
